DLH901 EGLL-EDDF
Flight info
| Callsign | DLH901 |
|---|---|
| Flight time | 1h 1m |
| Altitude | 37000 |
| Route | DET L6 DVR UL9 KONAN UL607 SPI T180 NIVNU T847 IMCOM IMCOM1A |
| Aircraft | A20N/M-SDE2E3FGHIRWXY/LB1 |
Departure
| Time | 2026-05-04 18:28 |
|---|---|
| Airport | London Heathrow Airport (EGLL) |
Arrival
| Time | 2026-05-04 19:29 |
|---|---|
| Airport | Frankfurt Main Airport (EDDF) |
| Time | Latitude | Longitude | Altitude | Speed | Heading |
|---|---|---|---|---|---|
| 2026-05-04 17:55 | 51.46938 | -0.44387 | 89 ft | 0 kts | 90° |
| 2026-05-04 18:15 | 51.46938 | -0.44391 | 86 ft | 1 kts | 90° |
| 2026-05-04 18:15 | 51.46938 | -0.44419 | 88 ft | 2 kts | 90° |
| 2026-05-04 18:15 | 51.46938 | -0.44439 | 86 ft | 2 kts | 90° |
| 2026-05-04 18:16 | 51.46938 | -0.44463 | 86 ft | 2 kts | 90° |
| 2026-05-04 18:16 | 51.46937 | -0.44490 | 88 ft | 2 kts | 89° |
| 2026-05-04 18:16 | 51.46937 | -0.44523 | 88 ft | 3 kts | 89° |
| 2026-05-04 18:17 | 51.46946 | -0.44560 | 88 ft | 0 kts | 173° |
| 2026-05-04 18:19 | 51.46939 | -0.44558 | 87 ft | 3 kts | 173° |
| 2026-05-04 18:19 | 51.46908 | -0.44555 | 86 ft | 6 kts | 178° |
| 2026-05-04 18:19 | 51.46851 | -0.44553 | 86 ft | 10 kts | 179° |
| 2026-05-04 18:20 | 51.46773 | -0.44554 | 89 ft | 13 kts | 180° |
| 2026-05-04 18:20 | 51.46705 | -0.44554 | 88 ft | 9 kts | 180° |
| 2026-05-04 18:20 | 51.46666 | -0.44629 | 87 ft | 11 kts | 264° |
| 2026-05-04 18:20 | 51.46665 | -0.44770 | 86 ft | 14 kts | 270° |
| 2026-05-04 18:21 | 51.46664 | -0.44944 | 86 ft | 17 kts | 270° |
| 2026-05-04 18:21 | 51.46663 | -0.45131 | 86 ft | 16 kts | 269° |
| 2026-05-04 18:21 | 51.46663 | -0.45286 | 86 ft | 9 kts | 269° |
| 2026-05-04 18:21 | 51.46663 | -0.45406 | 86 ft | 12 kts | 270° |
| 2026-05-04 18:22 | 51.46663 | -0.45561 | 86 ft | 15 kts | 270° |
| 2026-05-04 18:22 | 51.46662 | -0.45733 | 86 ft | 14 kts | 269° |
| 2026-05-04 18:22 | 51.46661 | -0.45907 | 86 ft | 17 kts | 270° |
| 2026-05-04 18:22 | 51.46660 | -0.46112 | 90 ft | 20 kts | 269° |
| 2026-05-04 18:23 | 51.46660 | -0.46313 | 89 ft | 17 kts | 269° |
| 2026-05-04 18:23 | 51.46659 | -0.46496 | 87 ft | 14 kts | 270° |
| 2026-05-04 18:23 | 51.46659 | -0.46666 | 90 ft | 15 kts | 269° |
| 2026-05-04 18:23 | 51.46657 | -0.46829 | 89 ft | 16 kts | 269° |
| 2026-05-04 18:24 | 51.46657 | -0.47012 | 89 ft | 15 kts | 269° |
| 2026-05-04 18:24 | 51.46656 | -0.47178 | 89 ft | 16 kts | 269° |
| 2026-05-04 18:24 | 51.46656 | -0.47377 | 87 ft | 17 kts | 269° |
| 2026-05-04 18:24 | 51.46655 | -0.47572 | 83 ft | 17 kts | 270° |
| 2026-05-04 18:25 | 51.46655 | -0.47752 | 84 ft | 17 kts | 271° |
| 2026-05-04 18:25 | 51.46654 | -0.47923 | 86 ft | 14 kts | 269° |
| 2026-05-04 18:25 | 51.46654 | -0.48080 | 89 ft | 14 kts | 270° |
| 2026-05-04 18:25 | 51.46649 | -0.48180 | 90 ft | 8 kts | 247° |
| 2026-05-04 18:26 | 51.46602 | -0.48212 | 90 ft | 9 kts | 180° |
| 2026-05-04 18:26 | 51.46523 | -0.48212 | 88 ft | 14 kts | 180° |
| 2026-05-04 18:26 | 51.46490 | -0.48209 | 88 ft | 4 kts | 165° |
| 2026-05-04 18:26 | 51.46479 | -0.48165 | 89 ft | 6 kts | 95° |
| 2026-05-04 18:27 | 51.46479 | -0.48155 | 88 ft | 0 kts | 89° |
| 2026-05-04 18:27 | 51.46479 | -0.48151 | 88 ft | 7 kts | 89° |
| 2026-05-04 18:27 | 51.46482 | -0.47739 | 86 ft | 69 kts | 90° |
| 2026-05-04 18:28 | 51.46485 | -0.46653 | 92 ft | 123 kts | 89° |
| 2026-05-04 18:28 | 51.46496 | -0.45050 | 150 ft | 157 kts | 88° |
| 2026-05-04 18:28 | 51.46500 | -0.43397 | 833 ft | 148 kts | 87° |
| 2026-05-04 18:28 | 51.46480 | -0.41671 | 1301 ft | 161 kts | 96° |
| 2026-05-04 18:29 | 51.46085 | -0.39949 | 1838 ft | 171 kts | 115° |
| 2026-05-04 18:29 | 51.45435 | -0.38229 | 2215 ft | 190 kts | 120° |
| 2026-05-04 18:29 | 51.44734 | -0.36344 | 2620 ft | 209 kts | 109° |
| 2026-05-04 18:29 | 51.44203 | -0.34018 | 3051 ft | 234 kts | 107° |
| 2026-05-04 18:30 | 51.43063 | -0.28731 | 4546 ft | 261 kts | 106° |
| 2026-05-04 18:30 | 51.42628 | -0.25866 | 5427 ft | 268 kts | 102° |
| 2026-05-04 18:30 | 51.42231 | -0.22919 | 6393 ft | 273 kts | 102° |
| 2026-05-04 18:31 | 51.41837 | -0.20000 | 7262 ft | 278 kts | 103° |
| 2026-05-04 18:31 | 51.41422 | -0.16941 | 8192 ft | 282 kts | 103° |
| 2026-05-04 18:31 | 51.40998 | -0.13848 | 9092 ft | 287 kts | 103° |
| 2026-05-04 18:31 | 51.40560 | -0.10710 | 10007 ft | 291 kts | 104° |
| 2026-05-04 18:32 | 51.40106 | -0.07501 | 10616 ft | 306 kts | 104° |
| 2026-05-04 18:32 | 51.39616 | -0.04050 | 10922 ft | 330 kts | 104° |
| 2026-05-04 18:32 | 51.39093 | -0.00367 | 11421 ft | 343 kts | 103° |
| 2026-05-04 18:32 | 51.38561 | 0.03370 | 12312 ft | 345 kts | 103° |
| 2026-05-04 18:33 | 51.38025 | 0.07132 | 13163 ft | 349 kts | 103° |
| 2026-05-04 18:33 | 51.37480 | 0.10940 | 13986 ft | 352 kts | 103° |
| 2026-05-04 18:33 | 51.36926 | 0.14776 | 14698 ft | 356 kts | 103° |
| 2026-05-04 18:33 | 51.36371 | 0.18607 | 15416 ft | 360 kts | 103° |
| 2026-05-04 18:34 | 51.35804 | 0.22528 | 16144 ft | 364 kts | 103° |
| 2026-05-04 18:34 | 51.35235 | 0.26494 | 16866 ft | 367 kts | 104° |
| 2026-05-04 18:34 | 51.34672 | 0.30407 | 17530 ft | 371 kts | 104° |
| 2026-05-04 18:34 | 51.34087 | 0.34461 | 17909 ft | 375 kts | 104° |
| 2026-05-04 18:35 | 51.33499 | 0.38527 | 18024 ft | 375 kts | 104° |
| 2026-05-04 18:35 | 51.32909 | 0.42590 | 18316 ft | 377 kts | 104° |
| 2026-05-04 18:35 | 51.32329 | 0.46576 | 18957 ft | 378 kts | 104° |
| 2026-05-04 18:35 | 51.31730 | 0.50688 | 19547 ft | 382 kts | 104° |
| 2026-05-04 18:36 | 51.31123 | 0.54843 | 20160 ft | 385 kts | 105° |
| 2026-05-04 18:36 | 51.30507 | 0.59031 | 20760 ft | 389 kts | 105° |
| 2026-05-04 18:36 | 51.29785 | 0.63156 | 21334 ft | 392 kts | 108° |
| 2026-05-04 18:36 | 51.29015 | 0.67348 | 21921 ft | 395 kts | 108° |
| 2026-05-04 18:37 | 51.28241 | 0.71579 | 22503 ft | 399 kts | 108° |
| 2026-05-04 18:37 | 51.27460 | 0.75848 | 23085 ft | 402 kts | 108° |
| 2026-05-04 18:37 | 51.26672 | 0.80144 | 23640 ft | 405 kts | 109° |
| 2026-05-04 18:37 | 51.25875 | 0.84476 | 24125 ft | 408 kts | 109° |
| 2026-05-04 18:38 | 51.25072 | 0.88833 | 24609 ft | 410 kts | 109° |
| 2026-05-04 18:38 | 51.24261 | 0.93218 | 25089 ft | 413 kts | 109° |
| 2026-05-04 18:38 | 51.23443 | 0.97628 | 25466 ft | 419 kts | 109° |
| 2026-05-04 18:38 | 51.22608 | 1.02114 | 25833 ft | 423 kts | 108° |
| 2026-05-04 18:39 | 51.21770 | 1.06619 | 26329 ft | 424 kts | 109° |
| 2026-05-04 18:39 | 51.20927 | 1.11137 | 26754 ft | 427 kts | 109° |
| 2026-05-04 18:39 | 51.20088 | 1.15623 | 27184 ft | 429 kts | 109° |
| 2026-05-04 18:39 | 51.19230 | 1.20199 | 27611 ft | 432 kts | 109° |
| 2026-05-04 18:40 | 51.18366 | 1.24796 | 28005 ft | 434 kts | 109° |
| 2026-05-04 18:40 | 51.17494 | 1.29421 | 28400 ft | 437 kts | 109° |
| 2026-05-04 18:40 | 51.16653 | 1.34079 | 28776 ft | 440 kts | 105° |
| 2026-05-04 18:40 | 51.16120 | 1.38905 | 29139 ft | 445 kts | 98° |
| 2026-05-04 18:41 | 51.15877 | 1.43836 | 29464 ft | 449 kts | 96° |
| 2026-05-04 18:41 | 51.15648 | 1.48823 | 29678 ft | 454 kts | 96° |
| 2026-05-04 18:41 | 51.15411 | 1.53842 | 30052 ft | 455 kts | 96° |
| 2026-05-04 18:41 | 51.15168 | 1.58878 | 30366 ft | 457 kts | 96° |
| 2026-05-04 18:42 | 51.14920 | 1.63939 | 30680 ft | 459 kts | 97° |
| 2026-05-04 18:42 | 51.14669 | 1.69012 | 30993 ft | 461 kts | 97° |
| 2026-05-04 18:42 | 51.14417 | 1.74036 | 31331 ft | 462 kts | 97° |
| 2026-05-04 18:42 | 51.14161 | 1.79126 | 31736 ft | 461 kts | 97° |
| 2026-05-04 18:43 | 51.13902 | 1.84210 | 32143 ft | 460 kts | 97° |
| 2026-05-04 18:43 | 51.13643 | 1.89269 | 32541 ft | 459 kts | 97° |
| 2026-05-04 18:43 | 51.13382 | 1.94326 | 32972 ft | 456 kts | 97° |
| 2026-05-04 18:43 | 51.13120 | 1.99351 | 33352 ft | 456 kts | 97° |
| 2026-05-04 18:44 | 51.12855 | 2.04376 | 33698 ft | 455 kts | 97° |
| 2026-05-04 18:44 | 51.12678 | 2.07699 | 33933 ft | 455 kts | 97° |
| 2026-05-04 18:44 | 51.12318 | 2.14414 | 34318 ft | 455 kts | 97° |
| 2026-05-04 18:44 | 51.12050 | 2.19354 | 34568 ft | 455 kts | 97° |
| 2026-05-04 18:45 | 51.11777 | 2.24372 | 34815 ft | 455 kts | 97° |
| 2026-05-04 18:45 | 51.11502 | 2.29382 | 35058 ft | 455 kts | 97° |
| 2026-05-04 18:45 | 51.11224 | 2.34402 | 35304 ft | 455 kts | 97° |
| 2026-05-04 18:45 | 51.10945 | 2.39423 | 35495 ft | 456 kts | 98° |
| 2026-05-04 18:46 | 51.10662 | 2.44457 | 35692 ft | 457 kts | 98° |
| 2026-05-04 18:46 | 51.10376 | 2.49495 | 35927 ft | 457 kts | 98° |
| 2026-05-04 18:46 | 51.10089 | 2.54529 | 36152 ft | 457 kts | 98° |
| 2026-05-04 18:46 | 51.09804 | 2.59496 | 36367 ft | 457 kts | 98° |
| 2026-05-04 18:47 | 51.09421 | 2.64507 | 36569 ft | 456 kts | 103° |
| 2026-05-04 18:47 | 51.08725 | 2.69407 | 36760 ft | 454 kts | 109° |
| 2026-05-04 18:47 | 51.07838 | 2.74218 | 36951 ft | 454 kts | 109° |
| 2026-05-04 18:48 | 51.06086 | 2.83857 | 36984 ft | 452 kts | 109° |
| 2026-05-04 18:48 | 51.04339 | 2.93470 | 36991 ft | 453 kts | 109° |
| 2026-05-04 18:49 | 51.02591 | 3.03017 | 36987 ft | 453 kts | 109° |
| 2026-05-04 18:49 | 51.00825 | 3.12611 | 36981 ft | 453 kts | 109° |
| 2026-05-04 18:50 | 50.99049 | 3.22205 | 36974 ft | 453 kts | 109° |
| 2026-05-04 18:50 | 50.97267 | 3.31788 | 36959 ft | 453 kts | 109° |
| 2026-05-04 18:51 | 50.95488 | 3.41305 | 36962 ft | 453 kts | 109° |
| 2026-05-04 18:51 | 50.93695 | 3.50843 | 36962 ft | 453 kts | 110° |
| 2026-05-04 18:52 | 50.91889 | 3.60402 | 36957 ft | 453 kts | 110° |
| 2026-05-04 18:52 | 50.90068 | 3.69954 | 36956 ft | 453 kts | 110° |
| 2026-05-04 18:53 | 50.88237 | 3.79433 | 36954 ft | 453 kts | 110° |
| 2026-05-04 18:53 | 50.86387 | 3.88970 | 36957 ft | 453 kts | 110° |
| 2026-05-04 18:54 | 50.84530 | 3.98501 | 36961 ft | 453 kts | 110° |
| 2026-05-04 18:54 | 50.82665 | 4.08028 | 36964 ft | 454 kts | 110° |
| 2026-05-04 18:55 | 50.80791 | 4.17557 | 36966 ft | 454 kts | 110° |
| 2026-05-04 18:55 | 50.77978 | 4.31768 | 36963 ft | 454 kts | 111° |
| 2026-05-04 18:56 | 50.76090 | 4.41251 | 36963 ft | 454 kts | 111° |
| 2026-05-04 18:56 | 50.74187 | 4.50760 | 36963 ft | 454 kts | 111° |
| 2026-05-04 18:57 | 50.72294 | 4.60172 | 36963 ft | 454 kts | 111° |
| 2026-05-04 18:57 | 50.70433 | 4.69701 | 36952 ft | 454 kts | 110° |
| 2026-05-04 18:58 | 50.68610 | 4.79161 | 36967 ft | 454 kts | 110° |
| 2026-05-04 18:58 | 50.66756 | 4.88683 | 36947 ft | 454 kts | 110° |
| 2026-05-04 18:59 | 50.64861 | 4.98176 | 36946 ft | 454 kts | 111° |
| 2026-05-04 18:59 | 50.62903 | 5.07635 | 36972 ft | 454 kts | 111° |
| 2026-05-04 19:00 | 50.60947 | 5.17085 | 36948 ft | 454 kts | 112° |
| 2026-05-04 19:00 | 50.58998 | 5.26478 | 36951 ft | 454 kts | 112° |
| 2026-05-04 19:01 | 50.57028 | 5.35933 | 36960 ft | 455 kts | 112° |
| 2026-05-04 19:01 | 50.55073 | 5.45274 | 36962 ft | 455 kts | 112° |
| 2026-05-04 19:02 | 50.53084 | 5.54733 | 36960 ft | 456 kts | 112° |
| 2026-05-04 19:02 | 50.51093 | 5.64184 | 36952 ft | 456 kts | 112° |
| 2026-05-04 19:03 | 50.49309 | 5.73696 | 36967 ft | 457 kts | 110° |
| 2026-05-04 19:03 | 50.48442 | 5.78472 | 36816 ft | 453 kts | 110° |
| 2026-05-04 19:03 | 50.47573 | 5.83206 | 36343 ft | 451 kts | 111° |
| 2026-05-04 19:04 | 50.46695 | 5.87927 | 35703 ft | 450 kts | 111° |
| 2026-05-04 19:04 | 50.45809 | 5.92647 | 35033 ft | 451 kts | 111° |
| 2026-05-04 19:04 | 50.44920 | 5.97360 | 34376 ft | 451 kts | 112° |
| 2026-05-04 19:04 | 50.44028 | 6.02070 | 33684 ft | 451 kts | 112° |
| 2026-05-04 19:05 | 50.43133 | 6.06787 | 32896 ft | 450 kts | 112° |
| 2026-05-04 19:05 | 50.42239 | 6.11482 | 32146 ft | 450 kts | 112° |
| 2026-05-04 19:05 | 50.41337 | 6.16202 | 31292 ft | 452 kts | 112° |
| 2026-05-04 19:05 | 50.40427 | 6.20949 | 30342 ft | 457 kts | 112° |
| 2026-05-04 19:06 | 50.39523 | 6.25660 | 29460 ft | 458 kts | 112° |
| 2026-05-04 19:06 | 50.38605 | 6.30432 | 28582 ft | 457 kts | 112° |
| 2026-05-04 19:06 | 50.37684 | 6.35207 | 27718 ft | 457 kts | 112° |
| 2026-05-04 19:06 | 50.36796 | 6.39989 | 26838 ft | 459 kts | 108° |
| 2026-05-04 19:07 | 50.36205 | 6.44928 | 25976 ft | 463 kts | 101° |
| 2026-05-04 19:07 | 50.35900 | 6.49953 | 25120 ft | 464 kts | 99° |
| 2026-05-04 19:07 | 50.35596 | 6.54982 | 24289 ft | 464 kts | 99° |
| 2026-05-04 19:07 | 50.35280 | 6.59983 | 23740 ft | 454 kts | 98° |
| 2026-05-04 19:08 | 50.34976 | 6.64773 | 23474 ft | 431 kts | 98° |
| 2026-05-04 19:08 | 50.34681 | 6.69372 | 22831 ft | 419 kts | 99° |
| 2026-05-04 19:08 | 50.34387 | 6.73887 | 22162 ft | 415 kts | 99° |
| 2026-05-04 19:08 | 50.34102 | 6.78305 | 21616 ft | 411 kts | 98° |
| 2026-05-04 19:09 | 50.33786 | 6.82716 | 21076 ft | 405 kts | 102° |
| 2026-05-04 19:09 | 50.33161 | 6.86963 | 20543 ft | 398 kts | 110° |
| 2026-05-04 19:09 | 50.32197 | 6.90984 | 20025 ft | 391 kts | 118° |
| 2026-05-04 19:09 | 50.31040 | 6.94815 | 19403 ft | 389 kts | 118° |
| 2026-05-04 19:10 | 50.29898 | 6.98623 | 18870 ft | 386 kts | 118° |
| 2026-05-04 19:10 | 50.28767 | 7.02414 | 18378 ft | 383 kts | 118° |
| 2026-05-04 19:10 | 50.27658 | 7.06139 | 17809 ft | 379 kts | 118° |
| 2026-05-04 19:10 | 50.26559 | 7.09826 | 17255 ft | 376 kts | 118° |
| 2026-05-04 19:11 | 50.25457 | 7.13515 | 16706 ft | 373 kts | 118° |
| 2026-05-04 19:11 | 50.24362 | 7.17171 | 16155 ft | 370 kts | 118° |
| 2026-05-04 19:11 | 50.23290 | 7.20747 | 15627 ft | 367 kts | 118° |
| 2026-05-04 19:11 | 50.22209 | 7.24341 | 15099 ft | 364 kts | 118° |
| 2026-05-04 19:12 | 50.21136 | 7.27906 | 14583 ft | 362 kts | 118° |
| 2026-05-04 19:12 | 50.19110 | 7.35041 | 13549 ft | 358 kts | 114° |
| 2026-05-04 19:12 | 50.18405 | 7.38751 | 13027 ft | 358 kts | 102° |
| 2026-05-04 19:13 | 50.18064 | 7.42592 | 12456 ft | 356 kts | 101° |
| 2026-05-04 19:13 | 50.17742 | 7.46405 | 11958 ft | 353 kts | 101° |
| 2026-05-04 19:13 | 50.17426 | 7.50190 | 11424 ft | 351 kts | 101° |
| 2026-05-04 19:13 | 50.17110 | 7.53935 | 11097 ft | 346 kts | 101° |
| 2026-05-04 19:14 | 50.16792 | 7.57674 | 10996 ft | 350 kts | 101° |
| 2026-05-04 19:14 | 50.16469 | 7.61432 | 10984 ft | 350 kts | 101° |
| 2026-05-04 19:14 | 50.16147 | 7.65184 | 10989 ft | 351 kts | 101° |
| 2026-05-04 19:14 | 50.15827 | 7.68900 | 10985 ft | 349 kts | 101° |
| 2026-05-04 19:15 | 50.15501 | 7.72652 | 10982 ft | 349 kts | 101° |
| 2026-05-04 19:15 | 50.15172 | 7.76411 | 10980 ft | 350 kts | 101° |
| 2026-05-04 19:15 | 50.14842 | 7.80175 | 10983 ft | 350 kts | 101° |
| 2026-05-04 19:15 | 50.14514 | 7.83912 | 10978 ft | 347 kts | 101° |
| 2026-05-04 19:16 | 50.14184 | 7.87654 | 10978 ft | 348 kts | 101° |
| 2026-05-04 19:16 | 50.13854 | 7.91388 | 10977 ft | 348 kts | 101° |
| 2026-05-04 19:16 | 50.13522 | 7.95122 | 10975 ft | 348 kts | 101° |
| 2026-05-04 19:16 | 50.13189 | 7.98854 | 10972 ft | 348 kts | 101° |
| 2026-05-04 19:17 | 50.12855 | 8.02590 | 10969 ft | 348 kts | 101° |
| 2026-05-04 19:17 | 50.12524 | 8.06276 | 10966 ft | 348 kts | 100° |
| 2026-05-04 19:17 | 50.12539 | 8.10052 | 10908 ft | 350 kts | 86° |
| 2026-05-04 19:17 | 50.12826 | 8.13812 | 10605 ft | 349 kts | 85° |
| 2026-05-04 19:18 | 50.13129 | 8.17538 | 10053 ft | 345 kts | 85° |
| 2026-05-04 19:18 | 50.13430 | 8.21215 | 9353 ft | 342 kts | 86° |
| 2026-05-04 19:18 | 50.13726 | 8.24905 | 9074 ft | 343 kts | 86° |
| 2026-05-04 19:18 | 50.14007 | 8.28488 | 8962 ft | 340 kts | 85° |
| 2026-05-04 19:19 | 50.14290 | 8.32130 | 8964 ft | 340 kts | 85° |
| 2026-05-04 19:19 | 50.14573 | 8.35789 | 8961 ft | 340 kts | 85° |
| 2026-05-04 19:19 | 50.14856 | 8.39452 | 8964 ft | 341 kts | 85° |
| 2026-05-04 19:19 | 50.15133 | 8.43062 | 8945 ft | 339 kts | 85° |
| 2026-05-04 19:20 | 50.15411 | 8.46693 | 8550 ft | 335 kts | 85° |
| 2026-05-04 19:20 | 50.15684 | 8.50278 | 7892 ft | 332 kts | 85° |
| 2026-05-04 19:20 | 50.15953 | 8.53829 | 7202 ft | 328 kts | 85° |
| 2026-05-04 19:20 | 50.16217 | 8.57336 | 6503 ft | 324 kts | 85° |
| 2026-05-04 19:21 | 50.16478 | 8.60821 | 6015 ft | 322 kts | 85° |
| 2026-05-04 19:21 | 50.16734 | 8.64267 | 5551 ft | 318 kts | 85° |
| 2026-05-04 19:21 | 50.17020 | 8.67658 | 5162 ft | 313 kts | 80° |
| 2026-05-04 19:21 | 50.17630 | 8.70896 | 5031 ft | 307 kts | 70° |
| 2026-05-04 19:22 | 50.18368 | 8.73932 | 4999 ft | 291 kts | 70° |
| 2026-05-04 19:22 | 50.19054 | 8.76810 | 4860 ft | 275 kts | 71° |
| 2026-05-04 19:22 | 50.19693 | 8.79514 | 4703 ft | 257 kts | 71° |
| 2026-05-04 19:22 | 50.20166 | 8.82066 | 4544 ft | 241 kts | 88° |
| 2026-05-04 19:23 | 50.19876 | 8.84564 | 4286 ft | 234 kts | 118° |
| 2026-05-04 19:23 | 50.18812 | 8.86394 | 4052 ft | 229 kts | 152° |
| 2026-05-04 19:23 | 50.17269 | 8.87093 | 4009 ft | 234 kts | 173° |
| 2026-05-04 19:23 | 50.15663 | 8.87305 | 4001 ft | 231 kts | 187° |
| 2026-05-04 19:24 | 50.14185 | 8.86427 | 4008 ft | 231 kts | 218° |
| 2026-05-04 19:24 | 50.12991 | 8.84740 | 4003 ft | 231 kts | 224° |
| 2026-05-04 19:24 | 50.11947 | 8.82915 | 3994 ft | 219 kts | 235° |
| 2026-05-04 19:24 | 50.11229 | 8.80935 | 3997 ft | 201 kts | 245° |
| 2026-05-04 19:25 | 50.10718 | 8.79028 | 3974 ft | 190 kts | 248° |
| 2026-05-04 19:25 | 50.10248 | 8.77081 | 3781 ft | 192 kts | 249° |
| 2026-05-04 19:25 | 50.09796 | 8.75192 | 3526 ft | 187 kts | 249° |
| 2026-05-04 19:25 | 50.09343 | 8.73299 | 3229 ft | 187 kts | 250° |
| 2026-05-04 19:26 | 50.08890 | 8.71398 | 2949 ft | 187 kts | 250° |
| 2026-05-04 19:26 | 50.08436 | 8.69497 | 2685 ft | 187 kts | 250° |
| 2026-05-04 19:26 | 50.07984 | 8.67604 | 2411 ft | 187 kts | 250° |
| 2026-05-04 19:26 | 50.07533 | 8.65719 | 2146 ft | 187 kts | 251° |
| 2026-05-04 19:27 | 50.07082 | 8.63829 | 1882 ft | 186 kts | 251° |
| 2026-05-04 19:27 | 50.06634 | 8.61958 | 1621 ft | 178 kts | 251° |
| 2026-05-04 19:27 | 50.06219 | 8.60223 | 1361 ft | 164 kts | 251° |
| 2026-05-04 19:27 | 50.05841 | 8.58643 | 1144 ft | 148 kts | 251° |
| 2026-05-04 19:28 | 50.05500 | 8.57213 | 916 ft | 135 kts | 252° |
| 2026-05-04 19:28 | 50.05181 | 8.55862 | 740 ft | 133 kts | 251° |
| 2026-05-04 19:28 | 50.04862 | 8.54507 | 572 ft | 134 kts | 251° |
| 2026-05-04 19:28 | 50.04549 | 8.53187 | 396 ft | 131 kts | 251° |
| 2026-05-04 19:29 | 50.04246 | 8.51951 | 335 ft | 101 kts | 249° |
| 2026-05-04 19:29 | 50.04060 | 8.51190 | 327 ft | 56 kts | 250° |
| 2026-05-04 19:29 | 50.03938 | 8.50691 | 320 ft | 48 kts | 247° |
| 2026-05-04 19:29 | 50.03856 | 8.50430 | 319 ft | 21 kts | 232° |
| 2026-05-04 19:30 | 50.03752 | 8.50259 | 319 ft | 22 kts | 218° |
| 2026-05-04 19:30 | 50.03664 | 8.50179 | 319 ft | 13 kts | 182° |
| 2026-05-04 19:30 | 50.03629 | 8.50285 | 320 ft | 13 kts | 79° |
| 2026-05-04 19:30 | 50.03662 | 8.50427 | 322 ft | 15 kts | 69° |
| 2026-05-04 19:31 | 50.03700 | 8.50587 | 323 ft | 16 kts | 70° |
| 2026-05-04 19:31 | 50.03740 | 8.50755 | 321 ft | 17 kts | 69° |
| 2026-05-04 19:31 | 50.03781 | 8.50923 | 324 ft | 17 kts | 70° |
| 2026-05-04 19:31 | 50.03822 | 8.51097 | 327 ft | 17 kts | 70° |
| 2026-05-04 19:32 | 50.03859 | 8.51250 | 328 ft | 14 kts | 69° |
| 2026-05-04 19:32 | 50.03895 | 8.51402 | 328 ft | 16 kts | 70° |
| 2026-05-04 19:32 | 50.03935 | 8.51571 | 333 ft | 17 kts | 69° |
| 2026-05-04 19:32 | 50.03979 | 8.51755 | 335 ft | 19 kts | 70° |
| 2026-05-04 19:33 | 50.04026 | 8.51948 | 334 ft | 20 kts | 69° |
| 2026-05-04 19:33 | 50.04077 | 8.52160 | 350 ft | 22 kts | 69° |
| 2026-05-04 19:33 | 50.04127 | 8.52368 | 347 ft | 17 kts | 69° |
| 2026-05-04 19:33 | 50.04169 | 8.52547 | 352 ft | 19 kts | 71° |
| 2026-05-04 19:34 | 50.04215 | 8.52744 | 352 ft | 20 kts | 66° |
| 2026-05-04 19:34 | 50.04263 | 8.52938 | 353 ft | 18 kts | 70° |
| 2026-05-04 19:34 | 50.04307 | 8.53124 | 355 ft | 18 kts | 69° |
| 2026-05-04 19:34 | 50.04351 | 8.53307 | 357 ft | 17 kts | 70° |
| 2026-05-04 19:35 | 50.04379 | 8.53423 | 360 ft | 16 kts | 69° |
| 2026-05-04 19:35 | 50.04404 | 8.53669 | 358 ft | 19 kts | 85° |
| 2026-05-04 19:35 | 50.04419 | 8.53886 | 358 ft | 21 kts | 84° |
| 2026-05-04 19:35 | 50.04435 | 8.54127 | 358 ft | 24 kts | 84° |
| 2026-05-04 19:36 | 50.04450 | 8.54354 | 361 ft | 16 kts | 84° |
| 2026-05-04 19:36 | 50.04442 | 8.54544 | 365 ft | 19 kts | 105° |
| 2026-05-04 19:36 | 50.04397 | 8.54668 | 362 ft | 21 kts | 130° |
| 2026-05-04 19:36 | 50.04282 | 8.54791 | 362 ft | 16 kts | 159° |
| 2026-05-04 19:37 | 50.04171 | 8.54851 | 359 ft | 18 kts | 160° |
| 2026-05-04 19:37 | 50.04082 | 8.54902 | 359 ft | 0 kts | 159° |
| 2026-05-04 19:37 | 50.04070 | 8.54909 | 362 ft | 4 kts | 159° |
| 2026-05-04 19:37 | 50.04068 | 8.54911 | 362 ft | 0 kts | 159° |
| 2026-05-04 19:40 | 50.04067 | 8.54911 | 362 ft | 1 kts | 159° |
| 2026-05-04 19:40 | 50.04045 | 8.54924 | 365 ft | 5 kts | 159° |
| 2026-05-04 19:40 | 50.03997 | 8.54952 | 359 ft | 9 kts | 159° |
| 2026-05-04 19:41 | 50.03926 | 8.54993 | 358 ft | 13 kts | 159° |
| 2026-05-04 19:41 | 50.03854 | 8.55056 | 363 ft | 13 kts | 121° |
| 2026-05-04 19:41 | 50.03868 | 8.55196 | 363 ft | 15 kts | 69° |
| 2026-05-04 19:41 | 50.03907 | 8.55361 | 357 ft | 18 kts | 70° |
| 2026-05-04 19:42 | 50.03953 | 8.55551 | 364 ft | 20 kts | 69° |
| 2026-05-04 19:42 | 50.04003 | 8.55760 | 361 ft | 20 kts | 69° |
| 2026-05-04 19:42 | 50.04055 | 8.55978 | 362 ft | 23 kts | 69° |
| 2026-05-04 19:42 | 50.04108 | 8.56201 | 362 ft | 17 kts | 69° |
| 2026-05-04 19:43 | 50.04154 | 8.56391 | 362 ft | 20 kts | 70° |
| 2026-05-04 19:43 | 50.04200 | 8.56586 | 362 ft | 20 kts | 70° |
| 2026-05-04 19:43 | 50.04251 | 8.56798 | 358 ft | 22 kts | 69° |
| 2026-05-04 19:43 | 50.04303 | 8.57017 | 361 ft | 21 kts | 70° |
| 2026-05-04 19:44 | 50.04356 | 8.57243 | 364 ft | 23 kts | 70° |
| 2026-05-04 19:44 | 50.04412 | 8.57471 | 359 ft | 21 kts | 69° |
| 2026-05-04 19:44 | 50.04462 | 8.57681 | 360 ft | 21 kts | 70° |
| 2026-05-04 19:44 | 50.04514 | 8.57902 | 358 ft | 22 kts | 70° |
| 2026-05-04 19:45 | 50.04565 | 8.58115 | 361 ft | 20 kts | 69° |
| 2026-05-04 19:45 | 50.04610 | 8.58303 | 361 ft | 19 kts | 69° |
| 2026-05-04 19:45 | 50.04659 | 8.58512 | 365 ft | 22 kts | 69° |
| 2026-05-04 19:45 | 50.04690 | 8.58635 | 361 ft | 0 kts | 69° |
| 2026-05-04 19:46 | 50.04690 | 8.58637 | 361 ft | 0 kts | 69° |
| 2026-05-04 19:46 | 50.04691 | 8.58639 | 361 ft | 1 kts | 69° |
| 2026-05-04 19:47 | 50.04702 | 8.58681 | 359 ft | 7 kts | 68° |
| 2026-05-04 19:47 | 50.04727 | 8.58773 | 359 ft | 11 kts | 66° |
| 2026-05-04 19:47 | 50.04759 | 8.58900 | 362 ft | 15 kts | 70° |
| 2026-05-04 19:47 | 50.04793 | 8.59044 | 364 ft | 14 kts | 69° |
| 2026-05-04 19:48 | 50.04823 | 8.59168 | 360 ft | 10 kts | 70° |
| 2026-05-04 19:48 | 50.04831 | 8.59203 | 362 ft | 2 kts | 68° |
| 2026-05-04 19:48 | 50.04848 | 8.59221 | 361 ft | 4 kts | 11° |
| 2026-05-04 19:48 | 50.04886 | 8.59206 | 359 ft | 7 kts | 339° |
| 2026-05-04 19:49 | 50.04919 | 8.59186 | 360 ft | 1 kts | 340° |
| 2026-05-04 19:49 | 50.04924 | 8.59183 | 359 ft | 0 kts | 340° |